ADDS METAR Data

Data at: 2016 UTC 18 Feb 2018

METAR for:LHUD (Szeged Arpt, --, HU)
Text:LHUD 181945Z 36006KT CAVOK 01/M02 Q1026
Temperature: 1.0°C ( 34°F)
Dewpoint: -2.0°C ( 28°F) [RH = 80%]
Pressure (altimeter):30.30 inches Hg (1026.0 mb)
Winds:from the N (360 degrees) at 7 MPH (6 knots; 3.1 m/s)
Visibility:6 or more sm (10+ km)
Ceiling:ceiling and visibility are OK
Clouds:unknown

TAF for:LHUD (Szeged Arpt, --, HU)
Text:No data found